sensor_id;sensor_type;location;lat;lon;timestamp;pressure;altitude;pressure_sealevel;temperature
82780;BMP280;72511;45.120;20.720;2023-11-18T00:06:31;100086.16;;;5.23
82780;BMP280;72511;45.120;20.720;2023-11-18T00:16:33;100099.59;;;5.05
82780;BMP280;72511;45.120;20.720;2023-11-18T00:26:35;100103.44;;;5.08
82780;BMP280;72511;45.120;20.720;2023-11-18T00:36:37;100116.06;;;5.11
82780;BMP280;72511;45.120;20.720;2023-11-18T00:46:39;100140.22;;;5.11
82780;BMP280;72511;45.120;20.720;2023-11-18T00:56:40;100145.22;;;5.02
82780;BMP280;72511;45.120;20.720;2023-11-18T01:06:42;100154.38;;;4.90
82780;BMP280;72511;45.120;20.720;2023-11-18T01:16:44;100167.00;;;4.83
82780;BMP280;72511;45.120;20.720;2023-11-18T01:26:47;100159.75;;;4.83
82780;BMP280;72511;45.120;20.720;2023-11-18T01:36:49;100160.88;;;4.79
82780;BMP280;72511;45.120;20.720;2023-11-18T01:46:51;100169.72;;;4.86
82780;BMP280;72511;45.120;20.720;2023-11-18T01:56:53;100173.91;;;4.80
82780;BMP280;72511;45.120;20.720;2023-11-18T02:06:54;100175.41;;;4.74
82780;BMP280;72511;45.120;20.720;2023-11-18T02:16:59;100185.38;;;4.77
82780;BMP280;72511;45.120;20.720;2023-11-18T02:27:04;100195.75;;;4.93
82780;BMP280;72511;45.120;20.720;2023-11-18T02:37:08;100209.53;;;4.91
82780;BMP280;72511;45.120;20.720;2023-11-18T02:47:12;100219.09;;;4.78
82780;BMP280;72511;45.120;20.720;2023-11-18T02:57:13;100213.69;;;4.71
82780;BMP280;72511;45.120;20.720;2023-11-18T03:07:14;100218.22;;;4.53
82780;BMP280;72511;45.120;20.720;2023-11-18T03:17:17;100236.69;;;4.65
82780;BMP280;72511;45.120;20.720;2023-11-18T03:27:19;100243.53;;;4.63
82780;BMP280;72511;45.120;20.720;2023-11-18T03:37:20;100249.69;;;4.67
82780;BMP280;72511;45.120;20.720;2023-11-18T03:47:24;100271.91;;;4.71
82780;BMP280;72511;45.120;20.720;2023-11-18T03:57:25;100272.69;;;4.71
82780;BMP280;72511;45.120;20.720;2023-11-18T04:07:26;100283.41;;;4.68
82780;BMP280;72511;45.120;20.720;2023-11-18T04:17:30;100261.16;;;4.60
82780;BMP280;72511;45.120;20.720;2023-11-18T04:27:31;100285.66;;;4.69
82780;BMP280;72511;45.120;20.720;2023-11-18T04:37:34;100294.09;;;4.61
82780;BMP280;72511;45.120;20.720;2023-11-18T04:47:36;100299.44;;;4.61
82780;BMP280;72511;45.120;20.720;2023-11-18T04:57:39;100310.53;;;4.59
82780;BMP280;72511;45.120;20.720;2023-11-18T05:07:40;100312.41;;;4.48
82780;BMP280;72511;45.120;20.720;2023-11-18T05:17:42;100328.44;;;4.45
82780;BMP280;72511;45.120;20.720;2023-11-18T05:27:43;100340.69;;;4.42
82780;BMP280;72511;45.120;20.720;2023-11-18T05:37:45;100344.13;;;4.43
82780;BMP280;72511;45.120;20.720;2023-11-18T05:47:46;100366.66;;;4.38
82780;BMP280;72511;45.120;20.720;2023-11-18T05:57:47;100375.06;;;4.30
82780;BMP280;72511;45.120;20.720;2023-11-18T06:07:49;100368.13;;;4.29
82780;BMP280;72511;45.120;20.720;2023-11-18T06:17:51;100387.31;;;4.31
82780;BMP280;72511;45.120;20.720;2023-11-18T06:27:52;100408.75;;;4.34
82780;BMP280;72511;45.120;20.720;2023-11-18T06:37:54;100406.44;;;4.33
82780;BMP280;72511;45.120;20.720;2023-11-18T06:47:55;100441.41;;;4.47
82780;BMP280;72511;45.120;20.720;2023-11-18T06:57:56;100440.28;;;4.55
82780;BMP280;72511;45.120;20.720;2023-11-18T07:07:57;100456.84;;;4.67
82780;BMP280;72511;45.120;20.720;2023-11-18T07:17:58;100463.00;;;4.71
82780;BMP280;72511;45.120;20.720;2023-11-18T07:28:00;100464.25;;;4.88
82780;BMP280;72511;45.120;20.720;2023-11-18T07:38:01;100470.56;;;5.16
82780;BMP280;72511;45.120;20.720;2023-11-18T07:48:07;100464.69;;;5.96
82780;BMP280;72511;45.120;20.720;2023-11-18T07:58:10;100469.63;;;7.79
82780;BMP280;72511;45.120;20.720;2023-11-18T08:08:13;100469.66;;;7.75
82780;BMP280;72511;45.120;20.720;2023-11-18T08:18:15;100479.16;;;8.38
82780;BMP280;72511;45.120;20.720;2023-11-18T08:28:16;100483.03;;;7.82
82780;BMP280;72511;45.120;20.720;2023-11-18T08:38:18;100485.94;;;7.54
82780;BMP280;72511;45.120;20.720;2023-11-18T08:48:20;100494.97;;;6.91
82780;BMP280;72511;45.120;20.720;2023-11-18T08:58:23;100508.09;;;6.86
82780;BMP280;72511;45.120;20.720;2023-11-18T09:08:37;100518.44;;;6.80
82780;BMP280;72511;45.120;20.720;2023-11-18T09:18:43;100518.38;;;7.12
82780;BMP280;72511;45.120;20.720;2023-11-18T09:28:48;100517.53;;;7.43
82780;BMP280;72511;45.120;20.720;2023-11-18T09:38:51;100522.06;;;7.60
82780;BMP280;72511;45.120;20.720;2023-11-18T09:49:14;100516.41;;;8.06
82780;BMP280;72511;45.120;20.720;2023-11-18T09:59:39;100522.41;;;8.24
82780;BMP280;72511;45.120;20.720;2023-11-18T10:09:45;100509.34;;;8.70
82780;BMP280;72511;45.120;20.720;2023-11-18T10:30:02;100507.44;;;8.63
82780;BMP280;72511;45.120;20.720;2023-11-18T10:40:04;100498.53;;;8.70
82780;BMP280;72511;45.120;20.720;2023-11-18T10:50:06;100515.03;;;8.75
82780;BMP280;72511;45.120;20.720;2023-11-18T11:00:11;100513.88;;;8.76
82780;BMP280;72511;45.120;20.720;2023-11-18T11:10:17;100512.78;;;8.70
82780;BMP280;72511;45.120;20.720;2023-11-18T11:20:26;100528.34;;;8.52
82780;BMP280;72511;45.120;20.720;2023-11-18T11:30:45;100522.25;;;8.48
82780;BMP280;72511;45.120;20.720;2023-11-18T11:40:48;100520.88;;;8.30
82780;BMP280;72511;45.120;20.720;2023-11-18T12:01:35;100551.72;;;8.22
82780;BMP280;72511;45.120;20.720;2023-11-18T12:11:38;100553.34;;;8.09
82780;BMP280;72511;45.120;20.720;2023-11-18T12:21:55;100538.50;;;7.83
82780;BMP280;72511;45.120;20.720;2023-11-18T12:31:56;100554.25;;;7.81
82780;BMP280;72511;45.120;20.720;2023-11-18T12:42:06;100559.75;;;7.64
82780;BMP280;72511;45.120;20.720;2023-11-18T12:52:09;100574.69;;;7.72
82780;BMP280;72511;45.120;20.720;2023-11-18T13:02:11;100569.75;;;7.60
82780;BMP280;72511;45.120;20.720;2023-11-18T13:12:19;100582.88;;;7.54
82780;BMP280;72511;45.120;20.720;2023-11-18T13:22:24;100602.13;;;7.53
82780;BMP280;72511;45.120;20.720;2023-11-18T13:32:25;100609.03;;;7.57
82780;BMP280;72511;45.120;20.720;2023-11-18T13:42:27;100606.72;;;7.49
82780;BMP280;72511;45.120;20.720;2023-11-18T13:52:30;100642.94;;;7.16
82780;BMP280;72511;45.120;20.720;2023-11-18T14:02:34;100640.25;;;6.81
82780;BMP280;72511;45.120;20.720;2023-11-18T14:12:36;100670.22;;;6.69
82780;BMP280;72511;45.120;20.720;2023-11-18T14:22:38;100664.44;;;6.46
82780;BMP280;72511;45.120;20.720;2023-11-18T14:32:41;100682.13;;;6.68
82780;BMP280;72511;45.120;20.720;2023-11-18T14:42:46;100684.84;;;6.78
82780;BMP280;72511;45.120;20.720;2023-11-18T14:52:52;100690.59;;;6.73
82780;BMP280;72511;45.120;20.720;2023-11-18T15:02:59;100695.56;;;6.68
82780;BMP280;72511;45.120;20.720;2023-11-18T15:13:03;100710.53;;;6.65
82780;BMP280;72511;45.120;20.720;2023-11-18T15:23:04;100702.47;;;6.55
82780;BMP280;72511;45.120;20.720;2023-11-18T15:33:06;100720.84;;;6.39
82780;BMP280;72511;45.120;20.720;2023-11-18T15:43:10;100715.75;;;6.16
82780;BMP280;72511;45.120;20.720;2023-11-18T15:53:13;100741.88;;;6.23
82780;BMP280;72511;45.120;20.720;2023-11-18T16:03:17;100735.34;;;6.20
82780;BMP280;72511;45.120;20.720;2023-11-18T16:13:18;100750.28;;;6.14
82780;BMP280;72511;45.120;20.720;2023-11-18T16:23:21;100752.16;;;6.03
82780;BMP280;72511;45.120;20.720;2023-11-18T16:33:24;100777.06;;;5.93
82780;BMP280;72511;45.120;20.720;2023-11-18T16:43:26;100782.06;;;5.95
82780;BMP280;72511;45.120;20.720;2023-11-18T16:53:27;100776.28;;;5.93
82780;BMP280;72511;45.120;20.720;2023-11-18T17:03:29;100794.34;;;5.99
82780;BMP280;72511;45.120;20.720;2023-11-18T17:13:32;100808.13;;;5.94
82780;BMP280;72511;45.120;20.720;2023-11-18T17:23:34;100809.16;;;5.76
82780;BMP280;72511;45.120;20.720;2023-11-18T17:33:40;100794.31;;;5.45
82780;BMP280;72511;45.120;20.720;2023-11-18T17:43:42;100808.78;;;5.34
82780;BMP280;72511;45.120;20.720;2023-11-18T17:53:43;100788.56;;;5.10
82780;BMP280;72511;45.120;20.720;2023-11-18T18:03:48;100813.50;;;5.11
82780;BMP280;72511;45.120;20.720;2023-11-18T18:13:49;100821.81;;;5.35
82780;BMP280;72511;45.120;20.720;2023-11-18T18:23:51;100829.34;;;5.23
82780;BMP280;72511;45.120;20.720;2023-11-18T18:33:54;100821.31;;;4.90
82780;BMP280;72511;45.120;20.720;2023-11-18T18:43:57;100822.31;;;4.78
82780;BMP280;72511;45.120;20.720;2023-11-18T18:53:59;100837.00;;;4.58
82780;BMP280;72511;45.120;20.720;2023-11-18T19:04:01;100852.06;;;4.40
82780;BMP280;72511;45.120;20.720;2023-11-18T19:14:02;100868.00;;;4.33
82780;BMP280;72511;45.120;20.720;2023-11-18T19:24:04;100871.03;;;4.28
82780;BMP280;72511;45.120;20.720;2023-11-18T19:34:06;100877.84;;;4.22
82780;BMP280;72511;45.120;20.720;2023-11-18T19:44:08;100891.41;;;4.10
82780;BMP280;72511;45.120;20.720;2023-11-18T19:54:09;100889.88;;;4.09
82780;BMP280;72511;45.120;20.720;2023-11-18T20:04:11;100900.16;;;4.07
82780;BMP280;72511;45.120;20.720;2023-11-18T20:14:13;100901.03;;;3.92
82780;BMP280;72511;45.120;20.720;2023-11-18T20:24:15;100885.72;;;3.70
82780;BMP280;72511;45.120;20.720;2023-11-18T20:34:17;100892.22;;;3.50
82780;BMP280;72511;45.120;20.720;2023-11-18T20:44:19;100904.59;;;3.35
82780;BMP280;72511;45.120;20.720;2023-11-18T20:54:20;100912.72;;;3.23
82780;BMP280;72511;45.120;20.720;2023-11-18T21:04:23;100902.34;;;3.18
82780;BMP280;72511;45.120;20.720;2023-11-18T21:14:25;100899.69;;;3.22
82780;BMP280;72511;45.120;20.720;2023-11-18T21:24:26;100916.66;;;3.10
82780;BMP280;72511;45.120;20.720;2023-11-18T21:34:28;100952.88;;;3.08
82780;BMP280;72511;45.120;20.720;2023-11-18T21:44:29;100944.41;;;2.87
82780;BMP280;72511;45.120;20.720;2023-11-18T21:54:32;100947.00;;;2.52
82780;BMP280;72511;45.120;20.720;2023-11-18T22:04:34;100995.75;;;2.18
82780;BMP280;72511;45.120;20.720;2023-11-18T22:14:36;100963.69;;;2.03
82780;BMP280;72511;45.120;20.720;2023-11-18T22:24:38;100938.16;;;1.89
82780;BMP280;72511;45.120;20.720;2023-11-18T22:34:41;100961.50;;;1.92
82780;BMP280;72511;45.120;20.720;2023-11-18T22:44:42;100977.75;;;1.87
82780;BMP280;72511;45.120;20.720;2023-11-18T22:54:46;100962.09;;;1.58
82780;BMP280;72511;45.120;20.720;2023-11-18T23:04:48;100968.06;;;1.67
82780;BMP280;72511;45.120;20.720;2023-11-18T23:14:49;100952.19;;;1.59
82780;BMP280;72511;45.120;20.720;2023-11-18T23:24:53;100954.78;;;1.43
82780;BMP280;72511;45.120;20.720;2023-11-18T23:34:55;100950.13;;;1.40
82780;BMP280;72511;45.120;20.720;2023-11-18T23:44:58;100939.34;;;1.37
82780;BMP280;72511;45.120;20.720;2023-11-18T23:55:00;100954.88;;;1.59
